Time;durP1;ratioP1;P1;durP2;ratioP2;P2;SDS_P1;SDS_P2;PMS_P1;PMS_P2;Temp;Humidity;BMP_temperature;BMP_pressure;BME280_temperature;BME280_humidity;BME280_pressure;Samples;Min_cycle;Max_cycle;Signal;HPM_P1;HPM_P2
2023/07/10 00:01:39;;;;;;;6.55;5.10;;;;;;;-141.20;100.00;60650.00;5026016;28;20691;-74
2023/07/10 00:04:18;;;;;;;9.60;5.68;;;;;;;-141.20;100.00;60650.00;5052403;28;20025;-74
2023/07/10 00:06:44;;;;;;;10.25;5.35;;;;;;;-141.20;100.00;60650.00;5034620;28;20067;-75
2023/07/10 00:09:09;;;;;;;9.30;5.22;;;;;;;-141.20;100.00;60650.00;5051191;28;20060;-75
2023/07/10 00:11:35;;;;;;;8.88;5.60;;;;;;;-141.20;100.00;60650.00;5063601;28;20032;-74
2023/07/10 00:14:00;;;;;;;9.85;5.28;;;;;;;-141.20;100.00;60650.00;5051523;28;20066;-74
2023/07/10 00:16:26;;;;;;;10.57;6.03;;;;;;;-141.20;100.00;60650.00;5051036;28;20028;-75
2023/07/10 00:18:52;;;;;;;9.23;5.68;;;;;;;-141.20;100.00;60650.00;5051168;28;20020;-73
2023/07/10 00:21:18;;;;;;;9.13;5.90;;;;;;;-141.20;100.00;60650.00;5034385;28;20044;-73
2023/07/10 00:23:44;;;;;;;7.93;5.68;;;;;;;-141.20;100.00;60650.00;5033899;28;20898;-73
2023/07/10 00:26:17;;;;;;;8.77;5.45;;;;;;;-141.20;100.00;60650.00;5050785;28;20033;-73
2023/07/10 00:28:43;;;;;;;8.13;5.25;;;;;;;-141.20;100.00;60650.00;5040724;28;20044;-72
2023/07/10 00:31:08;;;;;;;9.57;5.30;;;;;;;-141.20;100.00;60650.00;5023983;28;20025;-72
2023/07/10 00:33:34;;;;;;;8.73;6.15;;;;;;;-141.20;100.00;60650.00;5033552;28;20029;-71
2023/07/10 00:36:01;;;;;;;11.25;5.72;;;;;;;-141.20;100.00;60650.00;5033416;28;20017;-71
2023/07/10 00:38:31;;;;;;;10.85;5.85;;;;;;;-141.20;100.00;60650.00;5050684;28;20044;-73
2023/07/10 00:40:57;;;;;;;9.43;5.68;;;;;;;-141.20;100.00;60650.00;5051749;28;20021;-73
2023/07/10 00:43:47;;;;;;;8.00;5.45;;;;;;;-141.20;100.00;60650.00;5059730;28;20040;-73
2023/07/10 00:46:18;;;;;;;8.40;5.53;;;;;;;-141.20;100.00;60650.00;5049144;28;20051;-73
2023/07/10 00:48:48;;;;;;;9.07;5.63;;;;;;;-141.20;100.00;60650.00;5050424;28;20056;-73
2023/07/10 00:51:54;;;;;;;6.82;5.25;;;;;;;-141.20;100.00;60650.00;5068400;28;20094;-72
2023/07/10 00:54:27;;;;;;;8.55;5.25;;;;;;;-141.20;100.00;60650.00;5028939;28;20037;-73
2023/07/10 00:56:53;;;;;;;7.35;5.85;;;;;;;-141.20;100.00;60650.00;5035318;28;20128;-73
2023/07/10 00:59:25;;;;;;;8.05;5.60;;;;;;;-141.20;100.00;60650.00;5051374;28;20020;-73
2023/07/10 01:02:21;;;;;;;8.82;5.55;;;;;;;-141.20;100.00;60650.00;5058156;28;20029;-73
2023/07/10 01:04:59;;;;;;;10.77;5.70;;;;;;;-141.20;100.00;60650.00;5024799;28;20049;-73
2023/07/10 01:07:26;;;;;;;8.80;6.18;;;;;;;-141.20;100.00;60650.00;5051258;28;20033;-73
2023/07/10 01:10:00;;;;;;;6.97;5.18;;;;;;;-141.20;100.00;60650.00;5070113;28;20032;-72
2023/07/10 01:12:26;;;;;;;9.23;5.72;;;;;;;-141.20;100.00;60650.00;5070027;28;20041;-73
2023/07/10 01:14:52;;;;;;;10.13;5.53;;;;;;;-141.20;100.00;60650.00;5069802;28;20029;-73
2023/07/10 01:17:17;;;;;;;9.43;5.38;;;;;;;-141.20;100.00;60650.00;5051198;28;20021;-73
2023/07/10 01:19:45;;;;;;;7.85;5.40;;;;;;;-141.20;100.00;60650.00;5049868;28;20550;-73
2023/07/10 01:22:11;;;;;;;10.45;5.53;;;;;;;-141.20;100.00;60650.00;5017093;28;20032;-72
2023/07/10 01:24:37;;;;;;;12.68;6.28;;;;;;;-141.20;100.00;60650.00;5061648;28;20562;-72
2023/07/10 01:27:04;;;;;;;7.95;5.70;;;;;;;-141.20;100.00;60650.00;5069793;28;20043;-72
2023/07/10 01:29:41;;;;;;;7.05;5.22;;;;;;;-141.20;100.00;60650.00;5050146;28;20023;-72
2023/07/10 01:32:08;;;;;;;8.13;5.25;;;;;;;-141.20;100.00;60650.00;5057092;28;20060;-72
2023/07/10 01:34:49;;;;;;;10.05;5.97;;;;;;;-141.20;100.00;60650.00;5070259;28;20028;-73
2023/07/10 01:37:16;;;;;;;8.60;5.85;;;;;;;-141.20;100.00;60650.00;5061174;28;20049;-73
2023/07/10 01:39:45;;;;;;;9.40;5.70;;;;;;;-141.20;100.00;60650.00;5052807;28;20163;-72
2023/07/10 01:42:11;;;;;;;9.25;5.70;;;;;;;-141.20;100.00;60650.00;5061974;28;20182;-72
2023/07/10 01:44:39;;;;;;;8.77;5.50;;;;;;;-141.20;100.00;60650.00;5066505;28;20527;-74
2023/07/10 01:47:07;;;;;;;8.75;5.57;;;;;;;-141.20;100.00;60650.00;5043782;28;20040;-73
2023/07/10 01:49:36;;;;;;;13.20;5.43;;;;;;;-141.20;100.00;60650.00;5057348;28;20101;-73
2023/07/10 01:52:03;;;;;;;8.18;5.40;;;;;;;-141.20;100.00;60650.00;5074073;28;20438;-74
2023/07/10 01:54:30;;;;;;;10.25;6.43;;;;;;;-141.20;100.00;60650.00;5073786;28;20040;-73
2023/07/10 01:56:55;;;;;;;8.45;5.53;;;;;;;-141.20;100.00;60650.00;5045361;28;20036;-73
2023/07/10 01:59:21;;;;;;;7.43;5.55;;;;;;;-141.20;100.00;60650.00;5053970;28;20021;-73
2023/07/10 02:01:46;;;;;;;8.98;5.65;;;;;;;-141.20;100.00;60650.00;5037560;28;20040;-74
2023/07/10 02:04:12;;;;;;;10.48;6.15;;;;;;;-141.20;100.00;60650.00;5037608;28;20044;-73
2023/07/10 02:06:38;;;;;;;10.75;5.90;;;;;;;-141.20;100.00;60650.00;5048384;28;20776;-71
2023/07/10 02:09:03;;;;;;;11.43;5.40;;;;;;;-141.20;100.00;60650.00;5056265;28;20025;-72
2023/07/10 02:11:29;;;;;;;9.45;5.90;;;;;;;-141.20;100.00;60650.00;5064996;28;20135;-71
2023/07/10 02:13:54;;;;;;;6.90;4.78;;;;;;;-141.20;100.00;60650.00;5052842;28;20032;-71
2023/07/10 02:16:20;;;;;;;8.15;5.63;;;;;;;-141.20;100.00;60650.00;5053141;28;20506;-71
2023/07/10 02:18:45;;;;;;;6.53;5.20;;;;;;;-141.20;100.00;60650.00;5070979;28;20107;-72
2023/07/10 02:21:11;;;;;;;8.63;5.43;;;;;;;-141.20;100.00;60650.00;5073138;28;20170;-71
2023/07/10 02:23:39;;;;;;;8.82;5.50;;;;;;;-141.20;100.00;60650.00;5056280;28;20094;-71
2023/07/10 02:26:04;;;;;;;9.90;5.10;;;;;;;-141.20;100.00;60650.00;5036421;28;20174;-71
2023/07/10 02:28:30;;;;;;;7.85;5.07;;;;;;;-141.20;100.00;60650.00;5054234;28;20493;-72
2023/07/10 02:30:56;;;;;;;7.95;5.22;;;;;;;-141.20;100.00;60650.00;5054235;28;20043;-71
2023/07/10 02:33:22;;;;;;;8.30;5.60;;;;;;;-141.20;100.00;60650.00;5036348;28;20029;-71
2023/07/10 02:35:49;;;;;;;8.38;5.40;;;;;;;-141.20;100.00;60650.00;5064295;28;20032;-72
2023/07/10 02:38:15;;;;;;;6.93;5.20;;;;;;;-141.20;100.00;60650.00;5052742;28;20066;-72
2023/07/10 02:40:43;;;;;;;7.72;5.20;;;;;;;-141.20;100.00;60650.00;5064204;28;20383;-72
2023/07/10 02:43:09;;;;;;;9.43;5.28;;;;;;;-141.20;100.00;60650.00;5055900;28;20024;-72
2023/07/10 02:45:35;;;;;;;8.77;5.15;;;;;;;-141.20;100.00;60650.00;5060784;28;20541;-72
2023/07/10 02:48:00;;;;;;;9.85;5.05;;;;;;;-141.20;100.00;60650.00;5040638;28;20482;-72
2023/07/10 02:50:25;;;;;;;8.32;5.22;;;;;;;-141.20;100.00;60650.00;5072691;28;20116;-74
2023/07/10 02:52:51;;;;;;;6.35;4.82;;;;;;;-141.20;100.00;60650.00;5055516;28;20032;-73
2023/07/10 02:55:16;;;;;;;11.55;5.43;;;;;;;-141.20;100.00;60650.00;5063832;28;20032;-74
2023/07/10 02:57:42;;;;;;;7.65;4.97;;;;;;;-141.20;100.00;60650.00;5068138;28;20600;-74
2023/07/10 03:00:08;;;;;;;8.18;5.30;;;;;;;-141.20;100.00;60650.00;5035866;28;20132;-74
2023/07/10 03:02:34;;;;;;;8.43;5.35;;;;;;;-141.20;100.00;60650.00;5057757;28;20099;-73
2023/07/10 03:04:59;;;;;;;7.68;5.25;;;;;;;-141.20;100.00;60650.00;5061077;28;20453;-73
2023/07/10 03:07:25;;;;;;;6.90;5.50;;;;;;;-141.20;100.00;60650.00;5070009;28;20016;-73
2023/07/10 03:09:50;;;;;;;8.80;5.65;;;;;;;-141.20;100.00;60650.00;5055505;28;20098;-72
2023/07/10 03:12:15;;;;;;;10.85;5.60;;;;;;;-141.20;100.00;60650.00;5054858;28;20402;-72
2023/07/10 03:14:41;;;;;;;8.43;5.32;;;;;;;-141.20;100.00;60650.00;5052002;28;20120;-70
2023/07/10 03:17:06;;;;;;;9.88;5.85;;;;;;;-141.20;100.00;60650.00;5039355;28;20021;-75
2023/07/10 03:19:32;;;;;;;7.95;5.68;;;;;;;-141.20;100.00;60650.00;5073472;28;20040;-74
2023/07/10 03:21:57;;;;;;;11.00;5.95;;;;;;;-141.20;100.00;60650.00;5058743;28;20020;-74
2023/07/10 03:24:23;;;;;;;9.07;5.90;;;;;;;-141.20;100.00;60650.00;5063165;28;20079;-74
2023/07/10 03:26:48;;;;;;;9.15;5.93;;;;;;;-141.20;100.00;60650.00;5069989;28;20029;-74
2023/07/10 03:29:14;;;;;;;7.88;5.43;;;;;;;-141.20;100.00;60650.00;5062154;28;20120;-75
2023/07/10 03:31:40;;;;;;;7.88;5.75;;;;;;;-141.20;100.00;60650.00;5066421;28;20036;-74
2023/07/10 03:34:06;;;;;;;10.52;6.15;;;;;;;-141.20;100.00;60650.00;5062981;28;20033;-74
2023/07/10 03:36:32;;;;;;;9.52;5.88;;;;;;;-141.20;100.00;60650.00;5054783;28;20463;-74
2023/07/10 03:38:58;;;;;;;10.45;6.13;;;;;;;-141.20;100.00;60650.00;5071860;28;20036;-74
2023/07/10 03:41:23;;;;;;;8.00;5.65;;;;;;;-141.20;100.00;60650.00;5038124;28;20094;-74
2023/07/10 03:43:49;;;;;;;10.45;5.20;;;;;;;-141.20;100.00;60650.00;5071606;28;20036;-74
2023/07/10 03:46:15;;;;;;;7.82;4.93;;;;;;;-141.20;100.00;60650.00;5059222;28;20029;-74
2023/07/10 03:48:41;;;;;;;10.27;5.75;;;;;;;-141.20;100.00;60650.00;5051684;28;20037;-74
2023/07/10 03:51:07;;;;;;;8.32;6.00;;;;;;;-141.20;100.00;60650.00;5069944;28;20123;-74
2023/07/10 03:53:32;;;;;;;9.27;6.00;;;;;;;-141.20;100.00;60650.00;5061036;28;20040;-74
2023/07/10 03:55:58;;;;;;;8.43;5.70;;;;;;;-141.20;100.00;60650.00;5066157;28;20037;-74
2023/07/10 03:58:26;;;;;;;9.70;5.93;;;;;;;-141.20;100.00;60650.00;5061651;28;20086;-74
2023/07/10 04:00:51;;;;;;;11.35;5.97;;;;;;;-141.20;100.00;60650.00;5051405;28;20028;-74
2023/07/10 04:03:21;;;;;;;9.00;6.15;;;;;;;-141.20;100.00;60650.00;5061689;28;20425;-74
2023/07/10 04:05:49;;;;;;;8.73;6.15;;;;;;;-141.20;100.00;60650.00;5066804;28;20474;-74
2023/07/10 04:08:15;;;;;;;11.63;5.82;;;;;;;-141.20;100.00;60650.00;5062589;28;20034;-74
2023/07/10 04:10:40;;;;;;;8.70;5.88;;;;;;;-141.20;100.00;60650.00;5056716;28;20028;-74
2023/07/10 04:13:06;;;;;;;9.65;6.35;;;;;;;-141.20;100.00;60650.00;5057554;28;20033;-74
2023/07/10 04:15:31;;;;;;;10.55;5.90;;;;;;;-141.20;100.00;60650.00;5054284;28;20051;-74
2023/07/10 04:17:56;;;;;;;10.00;6.30;;;;;;;-141.20;100.00;60650.00;5059187;28;20037;-74
2023/07/10 04:20:22;;;;;;;9.70;6.22;;;;;;;-141.20;100.00;60650.00;5064243;28;20104;-74
2023/07/10 04:22:47;;;;;;;8.15;6.10;;;;;;;-141.20;100.00;60650.00;5050665;28;20044;-74
2023/07/10 04:25:14;;;;;;;8.85;6.25;;;;;;;-141.20;100.00;60650.00;5063265;28;20203;-74
2023/07/10 04:27:39;;;;;;;10.43;6.28;;;;;;;-141.20;100.00;60650.00;5045117;28;20040;-74
2023/07/10 04:30:05;;;;;;;11.40;6.63;;;;;;;-141.20;100.00;60650.00;5049553;28;20032;-74
2023/07/10 04:32:30;;;;;;;11.23;7.00;;;;;;;-141.20;100.00;60650.00;5058529;28;20072;-74
2023/07/10 04:34:56;;;;;;;8.60;5.63;;;;;;;-141.20;100.00;60650.00;5064181;28;20021;-75
2023/07/10 04:37:22;;;;;;;9.50;6.05;;;;;;;-141.20;100.00;60650.00;5061852;28;20398;-74
2023/07/10 04:39:47;;;;;;;12.30;6.13;;;;;;;-141.20;100.00;60650.00;5066088;28;20077;-74
2023/07/10 04:42:13;;;;;;;8.75;6.20;;;;;;;-141.20;100.00;60650.00;5045217;28;20036;-74
2023/07/10 04:44:38;;;;;;;9.32;5.63;;;;;;;-141.20;100.00;60650.00;5050210;28;20119;-74
2023/07/10 04:47:04;;;;;;;9.77;5.80;;;;;;;-141.20;100.00;60650.00;5061306;28;20066;-74
2023/07/10 04:49:29;;;;;;;7.43;5.93;;;;;;;-141.20;100.00;60650.00;5057097;28;20117;-75
2023/07/10 04:51:54;;;;;;;10.88;5.88;;;;;;;-141.20;100.00;60650.00;5070389;28;20548;-74
2023/07/10 04:54:20;;;;;;;9.93;5.65;;;;;;;-141.20;100.00;60650.00;5066085;28;20055;-74
2023/07/10 04:56:46;;;;;;;9.18;5.35;;;;;;;-141.20;100.00;60650.00;5060986;28;20533;-74
2023/07/10 04:59:11;;;;;;;6.93;5.13;;;;;;;-141.20;100.00;60650.00;5056978;28;20028;-74
2023/07/10 05:01:37;;;;;;;6.90;5.30;;;;;;;-141.20;100.00;60650.00;5070179;28;20086;-74
2023/07/10 05:04:03;;;;;;;9.57;5.47;;;;;;;-141.20;100.00;60650.00;5065823;28;20021;-74
2023/07/10 05:06:28;;;;;;;9.38;5.68;;;;;;;-141.20;100.00;60650.00;5033349;28;20485;-74
2023/07/10 05:08:55;;;;;;;9.35;5.30;;;;;;;-141.20;100.00;60650.00;5067988;28;20024;-74
2023/07/10 05:11:22;;;;;;;11.23;5.95;;;;;;;-141.20;100.00;60650.00;5059253;28;20050;-74
2023/07/10 05:13:47;;;;;;;9.65;6.00;;;;;;;-141.20;100.00;60650.00;5063249;28;20168;-74
2023/07/10 05:16:13;;;;;;;6.30;4.85;;;;;;;-141.20;100.00;60650.00;5062240;28;20562;-74
2023/07/10 05:18:39;;;;;;;7.95;5.50;;;;;;;-141.20;100.00;60650.00;5057707;28;20031;-74
2023/07/10 05:21:04;;;;;;;8.07;6.20;;;;;;;-141.20;100.00;60650.00;5058524;28;20041;-74
2023/07/10 05:23:30;;;;;;;8.07;5.47;;;;;;;-141.20;100.00;60650.00;5047225;28;20092;-74
2023/07/10 05:26:02;;;;;;;9.85;5.57;;;;;;;-141.20;100.00;60650.00;5069938;28;20052;-74
2023/07/10 05:28:28;;;;;;;9.77;6.00;;;;;;;-141.20;100.00;60650.00;5056480;28;20044;-74
2023/07/10 05:30:54;;;;;;;9.85;6.22;;;;;;;-141.20;100.00;60650.00;5049833;28;20091;-74
2023/07/10 05:33:20;;;;;;;8.05;5.75;;;;;;;-141.20;100.00;60650.00;5068060;28;20539;-74
2023/07/10 05:35:50;;;;;;;9.63;6.20;;;;;;;-141.20;100.00;60650.00;5069747;28;20025;-74
2023/07/10 05:38:15;;;;;;;10.85;6.38;;;;;;;-141.20;100.00;60650.00;5064460;28;20090;-74
2023/07/10 05:40:41;;;;;;;9.55;6.50;;;;;;;-141.20;100.00;60650.00;5061600;28;20032;-74
2023/07/10 05:43:07;;;;;;;8.88;6.28;;;;;;;-141.20;100.00;60650.00;5047493;28;20025;-74
2023/07/10 05:45:32;;;;;;;9.98;5.57;;;;;;;-141.20;100.00;60650.00;5049758;28;20655;-75
2023/07/10 05:47:58;;;;;;;10.25;5.85;;;;;;;-141.20;100.00;60650.00;5064129;28;20061;-74
2023/07/10 05:50:23;;;;;;;9.55;6.38;;;;;;;-141.20;100.00;60650.00;5044500;28;20474;-75
2023/07/10 05:52:48;;;;;;;11.60;6.93;;;;;;;-141.20;100.00;60650.00;5049423;28;20043;-74
2023/07/10 05:55:14;;;;;;;9.82;6.00;;;;;;;-141.20;100.00;60650.00;5062256;28;20024;-74
2023/07/10 05:57:39;;;;;;;8.48;6.03;;;;;;;-141.20;100.00;60650.00;5069464;28;20116;-75
2023/07/10 06:00:05;;;;;;;8.20;6.15;;;;;;;-141.20;100.00;60650.00;5058819;28;20391;-74
2023/07/10 06:02:30;;;;;;;13.35;6.40;;;;;;;-141.20;100.00;60650.00;5063122;28;20102;-73
2023/07/10 06:04:56;;;;;;;9.55;6.18;;;;;;;-141.20;100.00;60650.00;5040356;28;20033;-73
2023/07/10 06:07:21;;;;;;;9.60;6.18;;;;;;;-141.20;100.00;60650.00;5079499;28;20483;-74
2023/07/10 06:09:47;;;;;;;9.30;6.75;;;;;;;-141.20;100.00;60650.00;5060642;28;20021;-73
2023/07/10 06:12:12;;;;;;;10.40;6.60;;;;;;;-141.20;100.00;60650.00;5052660;28;20029;-73
2023/07/10 06:14:37;;;;;;;10.88;6.65;;;;;;;-141.20;100.00;60650.00;5052435;28;20410;-73
2023/07/10 06:17:03;;;;;;;11.55;5.82;;;;;;;-141.20;100.00;60650.00;5052481;28;20086;-74
2023/07/10 06:19:29;;;;;;;12.73;6.95;;;;;;;-141.20;100.00;60650.00;5070850;28;20103;-75
2023/07/10 06:22:05;;;;;;;10.63;6.75;;;;;;;-141.20;100.00;60650.00;5048873;28;20037;-74
2023/07/10 06:24:30;;;;;;;9.70;6.53;;;;;;;-141.20;100.00;60650.00;5061212;28;20039;-74
2023/07/10 06:26:56;;;;;;;12.90;7.57;;;;;;;-141.20;100.00;60650.00;5052388;28;20017;-74
2023/07/10 06:29:21;;;;;;;9.52;6.97;;;;;;;-141.20;100.00;60650.00;5070560;28;20029;-75
2023/07/10 06:31:46;;;;;;;9.35;6.55;;;;;;;-141.20;100.00;60650.00;5056687;28;20024;-75
2023/07/10 06:34:12;;;;;;;11.27;6.88;;;;;;;-141.20;100.00;60650.00;5060616;28;20032;-75
2023/07/10 06:36:37;;;;;;;10.60;7.07;;;;;;;-141.20;100.00;60650.00;5071673;28;20475;-75
2023/07/10 06:39:04;;;;;;;11.25;6.78;;;;;;;-141.20;100.00;60650.00;5044173;28;20037;-75
2023/07/10 06:41:30;;;;;;;9.35;6.68;;;;;;;-141.20;100.00;60650.00;5071833;28;20025;-75
2023/07/10 06:43:56;;;;;;;11.18;6.88;;;;;;;-141.20;100.00;60650.00;5074217;28;20079;-74
2023/07/10 06:46:22;;;;;;;9.95;6.93;;;;;;;-141.20;100.00;60650.00;5060423;28;20494;-74
2023/07/10 06:48:48;;;;;;;7.35;6.47;;;;;;;-141.20;100.00;60650.00;5062306;28;20479;-75
2023/07/10 06:51:13;;;;;;;9.70;6.85;;;;;;;-141.20;100.00;60650.00;5049464;28;20036;-75
2023/07/10 06:53:38;;;;;;;10.68;6.70;;;;;;;-141.20;100.00;60650.00;5065122;28;20124;-75
2023/07/10 06:56:05;;;;;;;7.90;6.80;;;;;;;-141.20;100.00;60650.00;5052478;28;20017;-74
2023/07/10 06:58:31;;;;;;;10.15;6.88;;;;;;;-141.20;100.00;60650.00;5064031;28;20115;-75
2023/07/10 07:00:57;;;;;;;10.25;6.97;;;;;;;-141.20;100.00;60650.00;5084428;28;20116;-75
2023/07/10 07:03:23;;;;;;;12.10;6.72;;;;;;;-141.20;100.00;60650.00;5064209;28;20170;-75
2023/07/10 07:05:48;;;;;;;10.30;7.00;;;;;;;-141.20;100.00;60650.00;5058624;28;20020;-75
2023/07/10 07:08:14;;;;;;;12.98;7.15;;;;;;;-141.20;100.00;60650.00;5061768;28;20528;-75
2023/07/10 07:10:43;;;;;;;11.45;7.50;;;;;;;-141.20;100.00;60650.00;5050428;28;20104;-75
2023/07/10 07:13:09;;;;;;;9.68;7.20;;;;;;;-141.20;100.00;60650.00;5050309;28;20064;-75
2023/07/10 07:15:34;;;;;;;13.95;7.20;;;;;;;-141.20;100.00;60650.00;5048881;28;20643;-74
2023/07/10 07:18:00;;;;;;;10.93;7.15;;;;;;;-141.20;100.00;60650.00;5060153;28;20278;-75
2023/07/10 07:20:25;;;;;;;8.85;6.93;;;;;;;-141.20;100.00;60650.00;5048457;28;20603;-75
2023/07/10 07:22:50;;;;;;;10.05;7.22;;;;;;;-141.20;100.00;60650.00;5064823;28;20040;-75
2023/07/10 07:25:16;;;;;;;13.55;7.55;;;;;;;-141.20;100.00;60650.00;5041872;28;20048;-75
2023/07/10 07:27:41;;;;;;;10.52;7.50;;;;;;;-141.20;100.00;60650.00;5073014;28;20037;-75
2023/07/10 07:30:07;;;;;;;11.75;7.28;;;;;;;-141.20;100.00;60650.00;5058559;28;20055;-75
2023/07/10 07:32:32;;;;;;;13.73;7.50;;;;;;;-141.20;100.00;60650.00;5052083;28;20033;-75
2023/07/10 07:34:58;;;;;;;12.13;7.78;;;;;;;-141.20;100.00;60650.00;5071457;28;20024;-75
2023/07/10 07:37:23;;;;;;;16.23;8.23;;;;;;;-141.20;100.00;60650.00;5060287;28;20036;-75
2023/07/10 07:39:49;;;;;;;11.85;8.00;;;;;;;-141.20;100.00;60650.00;5066264;28;20025;-75
2023/07/10 07:42:14;;;;;;;15.07;8.02;;;;;;;-141.20;100.00;60650.00;5051900;28;20060;-75
2023/07/10 07:44:40;;;;;;;9.45;7.43;;;;;;;-141.20;100.00;60650.00;5056983;28;20054;-75
2023/07/10 07:47:06;;;;;;;11.93;7.28;;;;;;;-141.20;100.00;60650.00;5060506;28;20037;-75
2023/07/10 07:49:31;;;;;;;11.90;7.55;;;;;;;-141.20;100.00;60650.00;5048478;28;20079;-75
2023/07/10 07:51:56;;;;;;;9.90;7.47;;;;;;;-141.20;100.00;60650.00;5064015;28;20494;-74
2023/07/10 07:54:22;;;;;;;9.43;7.80;;;;;;;-141.20;100.00;60650.00;5067229;28;20092;-75
2023/07/10 07:56:47;;;;;;;12.68;8.38;;;;;;;-141.20;100.00;60650.00;5063562;28;20475;-75
2023/07/10 07:59:13;;;;;;;12.48;7.45;;;;;;;-141.20;100.00;60650.00;5071504;28;20035;-75
2023/07/10 08:01:38;;;;;;;14.07;7.93;;;;;;;-141.20;100.00;60650.00;5072483;28;20487;-75
2023/07/10 08:04:04;;;;;;;13.38;8.02;;;;;;;-141.20;100.00;60650.00;5053256;28;20104;-74
2023/07/10 08:06:32;;;;;;;10.60;7.13;;;;;;;-141.20;100.00;60650.00;5052627;28;20048;-75
2023/07/10 08:08:57;;;;;;;11.90;7.20;;;;;;;-141.20;100.00;60650.00;5064697;28;20053;-75
2023/07/10 08:11:23;;;;;;;13.40;8.45;;;;;;;-141.20;100.00;60650.00;5062456;28;20624;-75
2023/07/10 08:13:48;;;;;;;9.75;7.80;;;;;;;-141.20;100.00;60650.00;5057407;28;20038;-75
2023/07/10 08:16:14;;;;;;;11.77;7.47;;;;;;;-141.20;100.00;60650.00;5059980;28;20025;-75
2023/07/10 08:18:40;;;;;;;9.95;7.35;;;;;;;-141.20;100.00;60650.00;5048818;28;20545;-75
2023/07/10 08:21:09;;;;;;;12.43;8.00;;;;;;;-141.20;100.00;60650.00;5058617;28;20095;-75
2023/07/10 08:23:35;;;;;;;9.75;6.57;;;;;;;-141.20;100.00;60650.00;5064045;28;20017;-75
2023/07/10 08:26:00;;;;;;;7.97;6.38;;;;;;;-141.20;100.00;60650.00;5034108;28;20083;-75
2023/07/10 08:28:26;;;;;;;7.13;6.10;;;;;;;-141.20;100.00;60650.00;5049138;28;20028;-75
2023/07/10 08:30:51;;;;;;;10.00;6.30;;;;;;;-141.20;100.00;60650.00;5050809;28;20037;-75
2023/07/10 08:33:17;;;;;;;11.32;6.32;;;;;;;-141.20;100.00;60650.00;5052084;28;20111;-75
2023/07/10 08:35:42;;;;;;;9.10;6.88;;;;;;;-141.20;100.00;60650.00;5071821;28;20039;-75
2023/07/10 08:38:07;;;;;;;12.50;6.60;;;;;;;-141.20;100.00;60650.00;5050812;28;20108;-75
2023/07/10 08:40:36;;;;;;;10.20;7.05;;;;;;;-141.20;100.00;60650.00;5061839;28;20028;-75
2023/07/10 08:43:16;;;;;;;8.63;6.20;;;;;;;-141.20;100.00;60650.00;5053605;28;20031;-75
2023/07/10 08:45:42;;;;;;;9.98;5.97;;;;;;;-141.20;100.00;60650.00;5050623;28;20049;-75
2023/07/10 08:48:48;;;;;;;10.18;5.80;;;;;;;-141.20;100.00;60650.00;5064413;28;20029;-75
2023/07/10 08:51:19;;;;;;;10.23;6.15;;;;;;;-141.20;100.00;60650.00;5053365;28;20045;-75
2023/07/10 08:53:59;;;;;;;10.85;5.93;;;;;;;-141.20;100.00;60650.00;5062602;28;20035;-75
2023/07/10 08:56:30;;;;;;;6.90;4.78;;;;;;;-141.20;100.00;60650.00;5053770;28;20029;-75
2023/07/10 08:59:03;;;;;;;9.52;4.90;;;;;;;-141.20;100.00;60650.00;5046977;28;20123;-75
2023/07/10 09:01:31;;;;;;;8.65;4.95;;;;;;;-141.20;100.00;60650.00;5050458;28;20051;-75
2023/07/10 09:03:58;;;;;;;6.85;4.60;;;;;;;-141.20;100.00;60650.00;5046770;28;20100;-75
2023/07/10 09:06:37;;;;;;;7.28;5.05;;;;;;;-141.20;100.00;60650.00;5043293;28;20079;-75
2023/07/10 09:09:08;;;;;;;9.07;4.60;;;;;;;-141.20;100.00;60650.00;5056855;28;20036;-75
2023/07/10 09:11:33;;;;;;;8.93;4.90;;;;;;;-141.20;100.00;60650.00;5050182;28;20040;-75
2023/07/10 09:14:25;;;;;;;8.02;5.45;;;;;;;-141.20;100.00;60650.00;5063434;28;20044;-75
2023/07/10 09:16:53;;;;;;;8.88;4.85;;;;;;;-141.20;100.00;60650.00;5063569;28;20040;-75
2023/07/10 09:19:19;;;;;;;7.40;4.43;;;;;;;-141.20;100.00;60650.00;5050228;28;20479;-75
2023/07/10 09:21:45;;;;;;;6.80;4.65;;;;;;;-141.20;100.00;60650.00;5046784;28;20040;-76
2023/07/10 09:24:18;;;;;;;5.05;4.07;;;;;;;-141.20;100.00;60650.00;5058897;28;20027;-75
2023/07/10 09:26:44;;;;;;;10.63;4.57;;;;;;;-141.20;100.00;60650.00;5067570;28;20125;-75
2023/07/10 09:29:09;;;;;;;8.40;4.95;;;;;;;-141.20;100.00;60650.00;5060057;28;20107;-75
2023/07/10 09:31:37;;;;;;;9.30;4.53;;;;;;;-141.20;100.00;60650.00;5057619;28;20064;-75
2023/07/10 09:34:02;;;;;;;6.88;4.38;;;;;;;-141.20;100.00;60650.00;5069768;28;20306;-74
2023/07/10 09:36:28;;;;;;;5.97;4.07;;;;;;;-141.20;100.00;60650.00;5056353;28;20104;-75
2023/07/10 09:38:53;;;;;;;6.72;4.22;;;;;;;-141.20;100.00;60650.00;5069851;28;20020;-75
2023/07/10 09:41:28;;;;;;;7.63;4.00;;;;;;;-141.20;100.00;60650.00;5056497;28;20058;-75
2023/07/10 09:43:56;;;;;;;7.05;4.35;;;;;;;-141.20;100.00;60650.00;5056097;28;20044;-75
2023/07/10 09:46:32;;;;;;;6.47;4.03;;;;;;;-141.20;100.00;60650.00;5048045;28;20021;-75
2023/07/10 09:49:00;;;;;;;7.15;3.88;;;;;;;-141.20;100.00;60650.00;5059770;28;20075;-75
2023/07/10 09:51:27;;;;;;;5.80;4.07;;;;;;;-141.20;100.00;60650.00;5053554;28;20463;-75
2023/07/10 09:54:02;;;;;;;5.97;4.25;;;;;;;-141.20;100.00;60650.00;5049994;28;20040;-75
2023/07/10 09:56:47;;;;;;;6.80;4.50;;;;;;;-141.20;100.00;60650.00;5086150;28;20028;-75
2023/07/10 09:59:25;;;;;;;6.95;4.28;;;;;;;-141.20;100.00;60650.00;5065666;28;20086;-75
2023/07/10 10:01:52;;;;;;;6.20;4.18;;;;;;;-141.20;100.00;60650.00;5062127;28;20072;-75
2023/07/10 10:04:20;;;;;;;5.20;4.15;;;;;;;-141.20;100.00;60650.00;5080469;28;20511;-75
2023/07/10 10:06:54;;;;;;;7.78;4.07;;;;;;;-141.20;100.00;60650.00;5062953;28;20068;-75
2023/07/10 10:09:25;;;;;;;7.43;4.45;;;;;;;-141.20;100.00;60650.00;5057285;28;20040;-75
2023/07/10 10:11:52;;;;;;;6.38;4.03;;;;;;;-141.20;100.00;60650.00;5036810;28;20029;-75
2023/07/10 10:14:37;;;;;;;7.90;4.30;;;;;;;-141.20;100.00;60650.00;5053168;28;20503;-75
2023/07/10 10:17:03;;;;;;;6.00;4.25;;;;;;;-141.20;100.00;60650.00;5053713;28;20047;-75
2023/07/10 10:19:36;;;;;;;6.60;4.03;;;;;;;-141.20;100.00;60650.00;5062859;28;20033;-75
2023/07/10 10:22:12;;;;;;;6.57;4.28;;;;;;;-141.20;100.00;60650.00;5071265;28;20487;-75
2023/07/10 10:24:38;;;;;;;6.30;4.10;;;;;;;-141.20;100.00;60650.00;5036346;28;20037;-75
2023/07/10 10:27:31;;;;;;;6.13;3.72;;;;;;;-141.20;100.00;60650.00;5066471;28;20111;-75
2023/07/10 10:30:11;;;;;;;6.15;4.05;;;;;;;-141.20;100.00;60650.00;5066620;28;20122;-75
2023/07/10 10:33:02;;;;;;;10.70;4.13;;;;;;;-141.20;100.00;60650.00;5065785;28;20037;-75
2023/07/10 10:35:56;;;;;;;5.18;4.60;;;;;;;-141.20;100.00;60650.00;5044967;28;20028;-75
2023/07/10 10:38:35;;;;;;;6.05;4.60;;;;;;;-141.20;100.00;60650.00;5056267;28;20158;-75
2023/07/10 10:41:22;;;;;;;6.63;4.25;;;;;;;-141.20;100.00;60650.00;5072106;28;20075;-75
2023/07/10 10:44:11;;;;;;;5.65;3.83;;;;;;;-141.20;100.00;60650.00;5079574;28;20474;-75
2023/07/10 10:46:55;;;;;;;6.72;4.13;;;;;;;-141.20;100.00;60650.00;5039850;28;20475;-75
2023/07/10 10:49:48;;;;;;;6.15;4.22;;;;;;;-141.20;100.00;60650.00;5070278;28;20051;-75
2023/07/10 10:52:33;;;;;;;8.07;4.38;;;;;;;-141.20;100.00;60650.00;5052692;28;20040;-75
2023/07/10 10:55:16;;;;;;;6.07;4.75;;;;;;;-141.20;100.00;60650.00;5052615;28;20037;-75
2023/07/10 10:57:53;;;;;;;5.82;4.40;;;;;;;-141.20;100.00;60650.00;5067269;28;20037;-75
2023/07/10 11:00:51;;;;;;;6.13;4.85;;;;;;;-141.20;100.00;60650.00;5065774;28;20032;-75
2023/07/10 11:03:42;;;;;;;7.78;5.10;;;;;;;-141.20;100.00;60650.00;5063445;28;20045;-74
2023/07/10 11:06:29;;;;;;;10.23;5.40;;;;;;;-141.20;100.00;60650.00;5052365;28;20491;-74
2023/07/10 11:08:58;;;;;;;10.25;5.25;;;;;;;-141.20;100.00;60650.00;5065944;28;20043;-73
2023/07/10 11:11:29;;;;;;;11.60;6.00;;;;;;;-141.20;100.00;60650.00;5052450;28;20037;-73
2023/07/10 11:13:55;;;;;;;12.32;5.88;;;;;;;-141.20;100.00;60650.00;5065518;28;20111;-73